Portada
METAR-TAF:

METAR-TAF

Aeroports :

Woomera, Austràlia

latitud: 31-08S, longitud: 136-49E, altitud: 165 m

Observació

L'informe es va fer fa 32 minuts, a les 14:00 UTC
Vent 9 kt del Nord
Temperatura 10°C
Humitat 57%
Pressió 1012 hPa
Visibilitat 10 km o més

METAR: YPWR 161400Z AUTO 36009KT 9999 // NCD 10/02 Q1012

Hora: 00:02 (14:32 UTC)

Pronòstic

L'informe es va fer fa 3 hores i 12 minuts, a les 11:20 UTC
Pronòstic vàlid del 16 a les 12 UTC al 17 a les 06 UTC
Vent 12 kt del Nord/Nord-Oest
Visibilitat 10 km o més
sense núvols per sota de 1500 mi sense presència de cumulonimbus.
A partir de les 17 a les 0000 UTC
Vent 18 kt del Oest
Visibilitat 10 km o més
sense núvols per sota de 1500 mi sense presència de cumulonimbus.

TAF: YPWR 161120Z 1612/1706 34012KT CAVOK FM170000 27018KT CAVOK

Observacions i pronòstics meteorològics de més de 4000 aeroports (METAR i TAF).

Les estacions disponibles són els punts grocs i vermells al mapa.

Posi el ratolí al punt desitjat per veure el nom de l'estació.

Feu clic per veure les observacions i els pronòstics meteorològics.

Per canviar el mapa: feu clic els botons verds amb una creu de color negre per apropar; al botó verd amb un guió per allunyar la imatge; o en les fletxes verdes per a mapes adjacents.


METAR-TAF: